Time;durP1;ratioP1;P1;durP2;ratioP2;P2;SDS_P1;SDS_P2;PMS_P1;PMS_P2;Temp;Humidity;BMP_temperature;BMP_pressure;BME280_temperature;BME280_humidity;BME280_pressure;Samples;Min_cycle;Max_cycle;Signal;HPM_P1;HPM_P2
2023/06/21 00:02:25;;;;;;;0.00;0.00;;;19.00;99.90;;;;;;5027266;28;20083;-68
2023/06/21 00:04:55;;;;;;;0.00;0.00;;;19.00;99.90;;;;;;5009902;28;20485;-68
2023/06/21 00:07:23;;;;;;;0.03;0.00;;;19.00;99.90;;;;;;5028304;28;20091;-68
2023/06/21 00:09:49;;;;;;;0.00;0.00;;;19.00;99.90;;;;;;5025575;28;21341;-68
2023/06/21 00:12:15;;;;;;;0.10;0.08;;;19.00;99.90;;;;;;5024443;28;20113;-68
2023/06/21 00:14:41;;;;;;;0.03;0.03;;;19.00;99.90;;;;;;5022010;28;20053;-68
2023/06/21 00:17:06;;;;;;;0.70;0.00;;;18.90;99.90;;;;;;5026810;28;20383;-68
2023/06/21 00:19:32;;;;;;;0.05;0.05;;;18.90;99.90;;;;;;5008108;28;20093;-68
2023/06/21 00:21:59;;;;;;;0.00;0.00;;;18.90;99.90;;;;;;5011361;28;20426;-68
2023/06/21 00:24:25;;;;;;;0.13;0.08;;;18.90;99.90;;;;;;5009612;28;20041;-68
2023/06/21 00:26:50;;;;;;;0.00;0.00;;;18.90;99.90;;;;;;5006721;28;20045;-68
2023/06/21 00:29:16;;;;;;;0.00;0.00;;;18.90;99.90;;;;;;5006556;28;20051;-68
2023/06/21 00:31:42;;;;;;;0.00;0.00;;;18.90;99.90;;;;;;5008431;28;20113;-68
2023/06/21 00:34:08;;;;;;;0.00;0.00;;;18.80;99.90;;;;;;5023783;28;20490;-68
2023/06/21 00:36:36;;;;;;;0.00;0.00;;;18.80;99.90;;;;;;5007807;28;20041;-68
2023/06/21 00:39:02;;;;;;;0.00;0.00;;;18.80;99.90;;;;;;5004785;28;20442;-68
2023/06/21 00:41:28;;;;;;;0.08;0.08;;;18.80;99.90;;;;;;5010102;28;20171;-68
2023/06/21 00:43:54;;;;;;;0.00;0.00;;;18.80;99.90;;;;;;5025987;28;20045;-68
2023/06/21 00:46:19;;;;;;;0.00;0.00;;;18.80;99.90;;;;;;5009850;28;20041;-68
2023/06/21 00:48:45;;;;;;;0.00;0.00;;;18.70;99.90;;;;;;5007934;28;20131;-68
2023/06/21 00:51:13;;;;;;;0.00;0.00;;;18.70;99.90;;;;;;5009877;28;20116;-67
2023/06/21 00:53:40;;;;;;;0.10;0.00;;;18.80;99.90;;;;;;5026929;28;20215;-68
2023/06/21 00:56:06;;;;;;;0.00;0.00;;;18.70;99.90;;;;;;5026636;28;20085;-67
2023/06/21 00:58:33;;;;;;;0.00;0.00;;;18.70;99.90;;;;;;5006918;28;20404;-67
2023/06/21 01:00:59;;;;;;;0.20;0.03;;;18.70;99.90;;;;;;4995463;28;20451;-67
2023/06/21 01:03:26;;;;;;;0.00;0.00;;;18.60;99.90;;;;;;5024053;28;20428;-68
2023/06/21 01:06:02;;;;;;;0.22;0.05;;;18.60;99.90;;;;;;5005095;28;20077;-68
2023/06/21 01:08:42;;;;;;;0.00;0.00;;;18.60;99.90;;;;;;5004962;28;20069;-68
2023/06/21 01:11:23;;;;;;;0.00;0.00;;;18.60;99.90;;;;;;5027485;28;20397;-67
2023/06/21 01:13:57;;;;;;;0.35;0.10;;;18.50;99.90;;;;;;5008728;28;20041;-68
2023/06/21 01:16:34;;;;;;;0.00;0.00;;;18.50;99.90;;;;;;5008170;28;20053;-67
2023/06/21 01:19:04;;;;;;;0.00;0.00;;;18.40;99.90;;;;;;5004623;28;20132;-67
2023/06/21 01:21:31;;;;;;;0.17;0.10;;;18.40;99.90;;;;;;5027205;28;20057;-67
2023/06/21 01:24:22;;;;;;;0.00;0.00;;;18.40;99.90;;;;;;5010022;28;20077;-68
2023/06/21 01:27:27;;;;;;;0.22;0.10;;;18.30;99.90;;;;;;5010742;28;20041;-68
2023/06/21 01:29:57;;;;;;;;;;;18.30;99.90;;;;;;5015607;28;20400;-68
2023/06/21 01:32:26;;;;;;;0.10;0.00;;;18.30;99.90;;;;;;5010596;28;19925;-67
2023/06/21 01:34:53;;;;;;;0.00;0.00;;;18.20;99.90;;;;;;5010503;28;20042;-67
2023/06/21 01:37:19;;;;;;;0.20;0.10;;;18.20;99.90;;;;;;5012892;28;20128;-67
2023/06/21 01:39:45;;;;;;;0.20;0.10;;;18.20;99.90;;;;;;5012529;28;20120;-68
2023/06/21 01:42:10;;;;;;;0.15;0.10;;;18.20;99.90;;;;;;5029897;28;20037;-68
2023/06/21 01:44:36;;;;;;;0.00;0.00;;;18.10;99.90;;;;;;5030512;28;20034;-67
2023/06/21 01:47:02;;;;;;;0.00;0.00;;;18.10;99.90;;;;;;5011062;28;20363;-67
2023/06/21 01:49:29;;;;;;;0.00;0.00;;;18.10;99.90;;;;;;5007929;28;20046;-67
2023/06/21 01:51:56;;;;;;;0.28;0.20;;;18.10;99.90;;;;;;5006162;28;20111;-67
2023/06/21 01:54:25;;;;;;;0.08;0.08;;;18.10;99.90;;;;;;5010709;28;20405;-68
2023/06/21 01:56:58;;;;;;;0.10;0.03;;;18.00;99.90;;;;;;5028333;28;20077;-67
2023/06/21 01:59:24;;;;;;;0.40;0.10;;;18.00;99.90;;;;;;5010289;28;20120;-67
2023/06/21 02:01:51;;;;;;;0.25;0.00;;;18.00;99.90;;;;;;5027718;28;20072;-67
2023/06/21 02:04:18;;;;;;;0.00;0.00;;;18.00;99.90;;;;;;5009435;28;20047;-68
2023/06/21 02:06:45;;;;;;;0.40;0.20;;;17.90;99.90;;;;;;5011838;28;20053;-68
2023/06/21 02:09:11;;;;;;;0.25;0.20;;;18.00;99.90;;;;;;5009086;28;20093;-68
2023/06/21 02:11:37;;;;;;;0.20;0.20;;;17.90;99.90;;;;;;5010278;28;20600;-67
2023/06/21 02:14:02;;;;;;;0.10;0.10;;;18.00;99.90;;;;;;5008603;28;20034;-68
2023/06/21 02:16:30;;;;;;;0.10;0.10;;;18.00;99.90;;;;;;5007453;28;20041;-67
2023/06/21 02:18:56;;;;;;;0.38;0.28;;;18.10;99.90;;;;;;5008142;28;20469;-67
2023/06/21 02:21:25;;;;;;;0.30;0.30;;;18.10;99.90;;;;;;5007667;28;20038;-68
2023/06/21 02:23:50;;;;;;;0.25;0.25;;;18.10;99.90;;;;;;5005688;28;20485;-68
2023/06/21 02:26:17;;;;;;;0.22;0.13;;;18.10;99.90;;;;;;5006426;28;20034;-67
2023/06/21 02:28:43;;;;;;;0.28;0.15;;;18.10;99.90;;;;;;5007801;28;20046;-68
2023/06/21 02:31:09;;;;;;;0.68;0.38;;;18.10;99.90;;;;;;5005757;28;20052;-68
2023/06/21 02:33:35;;;;;;;0.60;0.50;;;18.10;99.90;;;;;;5005711;28;20490;-67
2023/06/21 02:36:01;;;;;;;1.10;0.40;;;18.10;99.90;;;;;;5011511;28;20386;-68
2023/06/21 02:38:26;;;;;;;0.17;0.15;;;18.10;99.90;;;;;;5009322;28;20034;-67
2023/06/21 02:40:52;;;;;;;0.40;0.30;;;18.00;99.90;;;;;;5006110;28;20413;-68
2023/06/21 02:43:18;;;;;;;1.00;0.88;;;18.00;99.90;;;;;;5001480;28;20327;-68
2023/06/21 02:45:45;;;;;;;1.00;0.65;;;17.90;99.90;;;;;;5009692;28;20105;-68
2023/06/21 02:48:11;;;;;;;0.28;0.20;;;17.90;99.90;;;;;;5007554;28;20120;-68
2023/06/21 02:50:37;;;;;;;0.10;0.10;;;17.90;99.90;;;;;;5005827;28;20525;-68
2023/06/21 02:53:03;;;;;;;0.30;0.15;;;17.90;99.90;;;;;;5005039;28;20413;-67
2023/06/21 02:55:29;;;;;;;0.50;0.40;;;17.90;99.90;;;;;;5009974;28;20048;-68
2023/06/21 02:57:55;;;;;;;0.55;0.20;;;17.80;99.90;;;;;;5009327;28;20490;-68
2023/06/21 03:00:28;;;;;;;0.68;0.40;;;17.80;99.90;;;;;;5005382;28;20394;-67
2023/06/21 03:03:02;;;;;;;0.00;0.00;;;17.80;99.90;;;;;;5025849;28;20242;-67
2023/06/21 03:05:28;;;;;;;0.30;0.25;;;17.80;99.90;;;;;;5006162;28;20029;-67
2023/06/21 03:07:55;;;;;;;0.30;0.20;;;17.70;99.90;;;;;;5010160;28;20124;-67
2023/06/21 03:10:21;;;;;;;0.32;0.22;;;17.70;99.90;;;;;;5007467;28;20045;-67
2023/06/21 03:12:47;;;;;;;0.45;0.22;;;17.70;99.90;;;;;;5004668;28;20100;-67
2023/06/21 03:15:12;;;;;;;0.90;0.32;;;17.70;99.90;;;;;;5006905;28;20041;-67
2023/06/21 03:17:39;;;;;;;0.47;0.17;;;17.70;99.90;;;;;;5008351;28;20037;-67
2023/06/21 03:20:13;;;;;;;0.03;0.03;;;17.60;99.90;;;;;;4992026;28;20037;-67
2023/06/21 03:22:44;;;;;;;0.38;0.32;;;17.60;99.90;;;;;;5007602;28;20046;-67
2023/06/21 03:25:11;;;;;;;0.40;0.40;;;17.60;99.90;;;;;;5024172;28;20073;-68
2023/06/21 03:27:37;;;;;;;0.25;0.20;;;17.60;99.90;;;;;;5010843;28;20098;-67
2023/06/21 03:30:05;;;;;;;0.10;0.10;;;17.60;99.90;;;;;;5025226;28;20053;-68
2023/06/21 03:32:31;;;;;;;0.50;0.22;;;17.60;99.90;;;;;;5024024;28;20068;-67
2023/06/21 03:34:58;;;;;;;0.85;0.60;;;17.60;99.90;;;;;;5010124;28;20069;-67
2023/06/21 03:37:26;;;;;;;0.63;0.28;;;17.60;99.90;;;;;;5011071;28;20045;-67
2023/06/21 03:39:51;;;;;;;1.00;0.68;;;17.60;99.90;;;;;;5025636;28;20107;-67
2023/06/21 03:42:18;;;;;;;0.30;0.20;;;17.60;99.90;;;;;;5010936;28;20037;-67
2023/06/21 03:44:43;;;;;;;0.82;0.60;;;17.60;99.90;;;;;;5011438;28;20416;-67
2023/06/21 03:47:10;;;;;;;0.60;0.60;;;17.60;99.90;;;;;;5008414;28;20033;-67
2023/06/21 03:49:36;;;;;;;1.13;0.65;;;17.70;99.90;;;;;;5008771;28;20060;-67
2023/06/21 03:52:03;;;;;;;0.70;0.45;;;17.70;99.90;;;;;;5006731;28;20497;-67
2023/06/21 03:54:29;;;;;;;0.63;0.20;;;17.70;99.90;;;;;;5008628;28;20502;-67
2023/06/21 03:56:54;;;;;;;0.45;0.25;;;17.70;99.90;;;;;;5029644;28;20048;-68
2023/06/21 03:59:20;;;;;;;0.57;0.28;;;17.70;99.90;;;;;;5011659;28;20048;-68
2023/06/21 04:01:46;;;;;;;0.00;0.00;;;17.70;99.90;;;;;;5012435;28;20045;-68
2023/06/21 04:04:13;;;;;;;0.25;0.25;;;17.70;99.90;;;;;;4994789;28;20068;-68
2023/06/21 04:06:39;;;;;;;0.80;0.15;;;17.70;99.90;;;;;;5027963;28;20036;-67
2023/06/21 04:09:05;;;;;;;0.60;0.40;;;17.70;99.90;;;;;;4994087;28;20057;-67
2023/06/21 04:11:31;;;;;;;0.30;0.30;;;17.70;99.90;;;;;;5010556;28;20037;-68
2023/06/21 04:13:57;;;;;;;1.83;0.90;;;17.80;99.90;;;;;;5010982;28;20100;-67
2023/06/21 04:16:23;;;;;;;0.38;0.38;;;17.80;99.90;;;;;;5026454;28;20069;-67
2023/06/21 04:18:49;;;;;;;1.80;0.38;;;17.80;99.90;;;;;;5006866;28;20081;-67
2023/06/21 04:21:14;;;;;;;0.75;0.50;;;17.80;99.90;;;;;;5029298;28;20049;-67
2023/06/21 04:23:40;;;;;;;1.17;0.88;;;17.80;99.90;;;;;;4995078;28;20038;-67
2023/06/21 04:26:06;;;;;;;0.85;0.20;;;17.80;99.90;;;;;;5011119;28;20468;-68
2023/06/21 04:28:34;;;;;;;0.32;0.20;;;17.80;99.90;;;;;;5027330;28;20037;-68
2023/06/21 04:31:00;;;;;;;1.55;0.35;;;17.90;99.90;;;;;;5011079;28;20056;-68
2023/06/21 04:33:28;;;;;;;1.23;0.35;;;17.90;99.90;;;;;;5007434;28;20045;-67
2023/06/21 04:35:54;;;;;;;0.57;0.43;;;18.00;99.90;;;;;;5006657;28;20541;-68
2023/06/21 04:38:20;;;;;;;1.02;0.60;;;18.00;99.90;;;;;;5008276;28;20046;-68
2023/06/21 04:40:46;;;;;;;0.55;0.50;;;18.00;99.90;;;;;;5025187;28;20045;-67
2023/06/21 04:43:11;;;;;;;0.77;0.40;;;18.10;99.90;;;;;;5026302;28;20045;-68
2023/06/21 04:45:37;;;;;;;0.30;0.28;;;18.10;99.90;;;;;;5026714;28;20036;-67
2023/06/21 04:48:04;;;;;;;0.43;0.40;;;18.10;99.90;;;;;;5007937;28;20107;-68
2023/06/21 04:50:31;;;;;;;0.60;0.60;;;18.10;99.90;;;;;;5005665;28;20402;-68
2023/06/21 04:52:59;;;;;;;0.03;0.03;;;18.10;99.90;;;;;;5009106;28;20092;-68
2023/06/21 04:55:26;;;;;;;0.40;0.35;;;18.10;99.90;;;;;;5024632;28;20066;-68
2023/06/21 04:57:52;;;;;;;0.30;0.30;;;18.10;99.90;;;;;;4996320;28;20034;-68
2023/06/21 05:00:18;;;;;;;0.40;0.40;;;18.20;99.90;;;;;;5014395;28;20120;-68
2023/06/21 05:02:45;;;;;;;0.10;0.10;;;18.20;99.90;;;;;;5014890;28;20092;-68
2023/06/21 05:05:10;;;;;;;0.30;0.30;;;18.30;99.90;;;;;;5010868;28;20447;-68
2023/06/21 05:07:38;;;;;;;0.17;0.17;;;18.50;99.90;;;;;;5010860;28;20116;-68
2023/06/21 05:10:07;;;;;;;0.90;0.20;;;18.60;99.90;;;;;;5029246;28;20061;-68
2023/06/21 05:12:33;;;;;;;0.20;0.10;;;18.70;99.90;;;;;;5032217;28;20077;-68
2023/06/21 05:14:58;;;;;;;0.82;0.32;;;18.70;99.90;;;;;;5033438;28;20447;-68
2023/06/21 05:17:24;;;;;;;0.35;0.28;;;18.70;99.90;;;;;;5000178;28;20511;-68
2023/06/21 05:19:50;;;;;;;0.80;0.32;;;18.70;99.90;;;;;;4998225;28;20080;-68
2023/06/21 05:22:16;;;;;;;0.20;0.10;;;18.80;99.90;;;;;;5032063;28;20065;-68
2023/06/21 05:24:41;;;;;;;0.10;0.10;;;18.80;99.90;;;;;;5011849;28;20041;-68
2023/06/21 05:27:07;;;;;;;0.22;0.22;;;18.80;99.90;;;;;;5010613;28;20045;-68
2023/06/21 05:29:35;;;;;;;0.50;0.43;;;18.80;99.90;;;;;;5032806;28;20116;-68
2023/06/21 05:32:01;;;;;;;0.73;0.40;;;18.80;99.90;;;;;;5031261;28;20073;-67
2023/06/21 05:34:28;;;;;;;0.68;0.43;;;18.90;99.90;;;;;;5031750;28;20073;-68
2023/06/21 05:36:54;;;;;;;0.90;0.70;;;19.00;99.90;;;;;;5012084;28;20100;-68
2023/06/21 05:39:20;;;;;;;0.20;0.17;;;19.00;99.90;;;;;;5030435;28;20358;-67
2023/06/21 05:41:46;;;;;;;0.43;0.30;;;19.10;99.90;;;;;;5029124;28;20056;-67
2023/06/21 05:44:13;;;;;;;0.38;0.32;;;19.20;99.90;;;;;;5029617;28;20049;-67
2023/06/21 05:46:38;;;;;;;1.33;0.75;;;19.20;99.90;;;;;;5014105;28;20076;-67
2023/06/21 05:49:04;;;;;;;0.13;0.13;;;19.30;99.90;;;;;;5030846;28;20092;-67
2023/06/21 05:51:30;;;;;;;0.40;0.30;;;19.40;99.90;;;;;;5010618;28;20033;-67
2023/06/21 05:53:56;;;;;;;1.73;0.47;;;19.50;99.90;;;;;;5028078;28;20482;-67
2023/06/21 05:56:26;;;;;;;0.03;0.00;;;19.60;99.90;;;;;;5011878;28;20037;-67
2023/06/21 05:58:53;;;;;;;1.42;0.68;;;19.70;99.90;;;;;;5010367;28;20065;-68
2023/06/21 06:01:19;;;;;;;0.57;0.35;;;19.80;99.90;;;;;;5007887;28;20091;-67
2023/06/21 06:03:44;;;;;;;0.93;0.40;;;19.80;99.90;;;;;;5008508;28;20050;-68
2023/06/21 06:06:14;;;;;;;0.47;0.30;;;19.90;99.90;;;;;;5027960;28;20052;-68
2023/06/21 06:08:39;;;;;;;0.22;0.20;;;20.00;99.90;;;;;;5005750;28;20553;-69
2023/06/21 06:11:05;;;;;;;0.25;0.20;;;20.10;99.90;;;;;;5027770;28;20175;-68
2023/06/21 06:13:31;;;;;;;0.47;0.47;;;20.10;99.90;;;;;;5029210;28;20052;-68
2023/06/21 06:15:56;;;;;;;0.35;0.15;;;20.20;99.90;;;;;;5030200;28;20079;-67
2023/06/21 06:18:22;;;;;;;0.20;0.15;;;20.30;99.90;;;;;;5009239;28;20125;-67
2023/06/21 06:20:48;;;;;;;0.43;0.30;;;20.30;99.90;;;;;;5029283;28;20056;-67
2023/06/21 06:23:14;;;;;;;0.30;0.22;;;20.40;99.90;;;;;;5028636;28;20042;-67
2023/06/21 06:25:40;;;;;;;0.13;0.05;;;20.40;99.90;;;;;;5026399;28;20120;-67
2023/06/21 06:28:06;;;;;;;0.10;0.10;;;20.50;99.90;;;;;;5011375;28;20119;-67
2023/06/21 06:30:32;;;;;;;0.65;0.47;;;20.50;99.90;;;;;;5010145;28;20049;-67
2023/06/21 06:32:58;;;;;;;0.68;0.45;;;20.60;99.90;;;;;;5028121;28;20082;-67
2023/06/21 06:35:23;;;;;;;1.30;0.30;;;20.70;99.90;;;;;;5012254;28;20125;-66
2023/06/21 06:37:49;;;;;;;0.10;0.10;;;20.80;99.90;;;;;;5029592;28;20355;-67
2023/06/21 06:40:15;;;;;;;1.58;0.38;;;20.80;99.90;;;;;;5030287;28;20128;-66
2023/06/21 06:42:40;;;;;;;2.28;0.77;;;20.90;99.90;;;;;;5012731;28;20484;-67
2023/06/21 06:45:07;;;;;;;0.00;0.00;;;20.90;99.90;;;;;;5030942;28;20120;-67
2023/06/21 06:47:33;;;;;;;0.35;0.15;;;21.00;99.90;;;;;;5029960;28;20132;-66
2023/06/21 06:49:58;;;;;;;0.10;0.10;;;21.10;99.90;;;;;;5028256;28;20140;-66
2023/06/21 06:52:24;;;;;;;0.20;0.20;;;21.10;99.90;;;;;;5027740;28;20561;-67
2023/06/21 06:54:50;;;;;;;0.10;0.00;;;21.20;99.90;;;;;;5029479;28;20086;-67
2023/06/21 06:57:16;;;;;;;0.28;0.13;;;21.20;99.90;;;;;;5027422;28;20116;-67
2023/06/21 06:59:42;;;;;;;0.10;0.05;;;21.20;99.90;;;;;;5006972;28;20178;-67
2023/06/21 07:02:07;;;;;;;1.13;0.52;;;21.30;99.90;;;;;;5009609;28;20544;-68
2023/06/21 07:04:33;;;;;;;0.00;0.00;;;21.40;99.90;;;;;;5010470;28;20065;-68
2023/06/21 07:07:01;;;;;;;0.43;0.38;;;21.40;99.90;;;;;;5027282;28;20041;-68
2023/06/21 07:09:27;;;;;;;0.85;0.40;;;21.50;99.90;;;;;;5011128;28;20052;-68
2023/06/21 07:11:56;;;;;;;0.20;0.15;;;21.50;99.90;;;;;;5008142;28;20264;-68
2023/06/21 07:14:23;;;;;;;0.32;0.10;;;21.60;99.90;;;;;;5028991;28;20444;-68
2023/06/21 07:16:49;;;;;;;0.10;0.10;;;21.70;99.90;;;;;;5028893;28;20041;-68
2023/06/21 07:19:15;;;;;;;1.48;0.28;;;21.80;99.90;;;;;;5024915;28;20526;-69
2023/06/21 07:21:41;;;;;;;0.40;0.20;;;21.90;99.90;;;;;;5025453;28;20457;-69
2023/06/21 07:24:06;;;;;;;0.10;0.00;;;22.00;99.90;;;;;;4995810;28;20048;-68
2023/06/21 07:26:33;;;;;;;0.03;0.03;;;22.10;99.90;;;;;;5009033;28;20071;-69
2023/06/21 07:28:59;;;;;;;0.28;0.28;;;22.20;99.90;;;;;;5028968;28;20057;-69
2023/06/21 07:31:25;;;;;;;0.15;0.13;;;22.20;99.90;;;;;;5029689;28;20227;-69
2023/06/21 07:33:55;;;;;;;0.13;0.10;;;22.20;99.90;;;;;;5026324;28;20413;-69
2023/06/21 07:36:21;;;;;;;0.30;0.20;;;22.30;99.90;;;;;;5028030;28;20065;-69
2023/06/21 07:38:48;;;;;;;0.22;0.10;;;22.30;99.90;;;;;;5029226;28;20092;-69
2023/06/21 07:41:17;;;;;;;0.13;0.10;;;22.30;99.90;;;;;;5028439;28;20037;-69
2023/06/21 07:43:42;;;;;;;0.20;0.10;;;22.40;99.90;;;;;;5029554;28;20099;-70
2023/06/21 07:46:09;;;;;;;0.15;0.15;;;22.40;99.90;;;;;;5010766;28;20030;-69
2023/06/21 07:48:34;;;;;;;1.90;1.30;;;22.50;99.90;;;;;;5025416;28;20501;-69
2023/06/21 07:51:00;;;;;;;2.63;0.30;;;22.60;99.90;;;;;;5008685;28;20041;-69
2023/06/21 07:53:26;;;;;;;0.47;0.20;;;22.60;99.90;;;;;;5028134;28;20409;-69
2023/06/21 07:55:52;;;;;;;0.70;0.40;;;22.70;99.90;;;;;;5007506;28;20041;-69
2023/06/21 07:58:18;;;;;;;0.32;0.20;;;22.80;99.90;;;;;;5027590;28;20041;-69
2023/06/21 08:00:43;;;;;;;0.13;0.10;;;22.80;99.90;;;;;;5029020;28;20048;-69
2023/06/21 08:03:09;;;;;;;0.10;0.10;;;22.90;99.90;;;;;;5024735;28;20049;-69
2023/06/21 08:05:35;;;;;;;0.00;0.00;;;23.00;99.90;;;;;;5027674;28;20033;-69
2023/06/21 08:08:01;;;;;;;0.00;0.00;;;23.10;99.90;;;;;;5006855;28;20052;-69
2023/06/21 08:10:28;;;;;;;1.73;0.60;;;23.20;99.90;;;;;;5010105;28;20054;-69
2023/06/21 08:12:54;;;;;;;0.10;0.10;;;23.30;99.90;;;;;;5008573;28;20042;-69
2023/06/21 08:15:20;;;;;;;0.15;0.00;;;23.30;99.90;;;;;;5027022;28;20401;-69
2023/06/21 08:17:46;;;;;;;3.75;0.20;;;23.20;99.90;;;;;;5011101;28;20184;-69
2023/06/21 08:20:12;;;;;;;0.20;0.20;;;23.20;99.90;;;;;;5010686;28;20128;-69
2023/06/21 08:22:37;;;;;;;0.32;0.17;;;23.30;99.90;;;;;;5025990;28;20037;-69
2023/06/21 08:25:03;;;;;;;0.10;0.03;;;23.40;99.90;;;;;;5027356;28;20057;-70
2023/06/21 08:27:29;;;;;;;0.10;0.10;;;23.50;99.90;;;;;;5027506;28;20046;-69
2023/06/21 08:29:55;;;;;;;0.10;0.00;;;23.60;99.90;;;;;;5011239;28;20068;-69
2023/06/21 08:32:20;;;;;;;1.65;0.20;;;23.70;99.90;;;;;;5008695;28;20048;-69
2023/06/21 08:34:46;;;;;;;0.20;0.15;;;23.70;99.90;;;;;;5010259;28;20519;-70
2023/06/21 08:37:12;;;;;;;0.22;0.10;;;23.90;99.90;;;;;;5025229;28;20029;-70
2023/06/21 08:39:38;;;;;;;0.00;0.00;;;24.20;99.90;;;;;;5008595;28;20056;-70
2023/06/21 08:42:04;;;;;;;0.00;0.00;;;24.40;99.90;;;;;;5010336;28;20041;-70
2023/06/21 08:44:30;;;;;;;0.10;0.10;;;24.40;99.90;;;;;;5027869;28;20041;-70
2023/06/21 08:46:57;;;;;;;0.10;0.10;;;24.50;99.90;;;;;;5029367;28;20473;-70
2023/06/21 08:49:26;;;;;;;0.00;0.00;;;24.50;99.90;;;;;;5010521;28;20133;-70
2023/06/21 08:51:53;;;;;;;0.32;0.10;;;24.70;99.90;;;;;;5008352;28;20504;-69
2023/06/21 08:54:26;;;;;;;0.40;0.13;;;24.80;99.90;;;;;;5029073;28;20049;-69
2023/06/21 08:57:09;;;;;;;0.63;0.30;;;24.90;99.90;;;;;;5010816;28;20045;-69
2023/06/21 08:59:41;;;;;;;0.60;0.20;;;25.10;99.90;;;;;;5025415;28;20130;-69
2023/06/21 09:02:27;;;;;;;0.88;0.32;;;25.40;99.90;;;;;;5027504;28;20602;-69
2023/06/21 09:04:55;;;;;;;0.00;0.00;;;25.70;99.90;;;;;;5027503;28;20042;-69
2023/06/21 09:07:22;;;;;;;0.10;0.03;;;26.00;99.90;;;;;;5028428;28;20041;-69
2023/06/21 09:09:53;;;;;;;0.00;0.00;;;26.20;99.90;;;;;;5028422;28;20115;-69
2023/06/21 09:12:18;;;;;;;3.50;0.40;;;26.40;99.90;;;;;;5009760;28;20049;-70
2023/06/21 09:14:44;;;;;;;0.00;0.00;;;26.50;99.90;;;;;;5028614;28;20041;-70
2023/06/21 09:17:11;;;;;;;1.45;0.50;;;26.70;99.90;;;;;;5010315;28;20560;-69
2023/06/21 09:19:37;;;;;;;0.47;0.30;;;26.50;99.90;;;;;;5023798;28;20112;-69
2023/06/21 09:22:03;;;;;;;0.03;0.00;;;26.30;99.90;;;;;;5024818;28;20058;-70
2023/06/21 09:24:29;;;;;;;0.20;0.10;;;26.10;99.90;;;;;;5008483;28;20074;-69
2023/06/21 09:26:55;;;;;;;0.32;0.10;;;25.90;99.90;;;;;;5027482;28;20070;-69
2023/06/21 09:29:21;;;;;;;0.00;0.00;;;26.10;99.90;;;;;;5025381;28;20058;-69
2023/06/21 09:31:47;;;;;;;0.03;0.00;;;26.30;99.90;;;;;;5028151;28;20042;-69
2023/06/21 09:34:13;;;;;;;0.00;0.00;;;26.20;99.90;;;;;;5025616;28;20064;-69
2023/06/21 09:36:40;;;;;;;0.17;0.10;;;26.00;99.90;;;;;;5028601;28;20045;-69
2023/06/21 09:39:10;;;;;;;0.15;0.10;;;25.80;99.90;;;;;;5024746;28;20092;-69
2023/06/21 09:41:36;;;;;;;0.00;0.00;;;25.50;99.90;;;;;;5007593;28;20060;-69
2023/06/21 09:44:02;;;;;;;0.25;0.15;;;25.30;99.90;;;;;;5026969;28;20105;-69
2023/06/21 09:46:28;;;;;;;0.00;0.00;;;25.10;99.90;;;;;;5032167;28;20056;-69
2023/06/21 09:49:05;;;;;;;0.05;0.03;;;24.90;99.90;;;;;;5010125;28;20045;-69
2023/06/21 09:51:30;;;;;;;0.00;0.00;;;24.80;99.90;;;;;;5014035;28;20056;-69
2023/06/21 09:53:56;;;;;;;0.08;0.00;;;24.70;99.90;;;;;;5027418;28;20038;-69
2023/06/21 09:56:22;;;;;;;0.65;0.13;;;24.60;99.90;;;;;;4997987;28;20421;-69
2023/06/21 09:58:50;;;;;;;0.00;0.00;;;24.60;99.90;;;;;;5029106;28;20038;-69
2023/06/21 10:01:16;;;;;;;0.60;0.10;;;24.50;99.90;;;;;;5029606;28;20049;-69
2023/06/21 10:03:47;;;;;;;0.00;0.00;;;24.50;99.90;;;;;;5011138;28;20073;-69
2023/06/21 10:06:16;;;;;;;0.00;0.00;;;24.60;99.90;;;;;;5013665;28;20552;-69
2023/06/21 10:08:43;;;;;;;0.00;0.00;;;24.70;99.90;;;;;;5029197;28;20080;-69
2023/06/21 10:11:09;;;;;;;0.35;0.00;;;24.80;99.90;;;;;;5030221;28;20081;-69
2023/06/21 10:13:37;;;;;;;0.00;0.00;;;24.90;99.90;;;;;;5029005;28;20076;-70
2023/06/21 10:16:03;;;;;;;0.17;0.03;;;24.90;99.90;;;;;;5031207;28;20076;-70
2023/06/21 10:18:30;;;;;;;0.45;0.20;;;25.30;99.90;;;;;;5010801;28;20085;-70
2023/06/21 10:21:04;;;;;;;0.20;0.10;;;25.90;99.90;;;;;;5029070;28;20103;-70
2023/06/21 10:23:34;;;;;;;0.00;0.00;;;26.20;99.90;;;;;;5009700;28;20038;-70
2023/06/21 10:26:03;;;;;;;0.25;0.10;;;26.50;99.90;;;;;;5012431;28;20481;-70
2023/06/21 10:28:41;;;;;;;0.00;0.00;;;26.70;99.90;;;;;;5027963;28;20045;-69
2023/06/21 10:31:12;;;;;;;0.45;0.00;;;27.10;99.90;;;;;;5029261;28;20046;-70
2023/06/21 10:33:38;;;;;;;0.00;0.00;;;27.30;99.90;;;;;;5028598;28;20042;-70
2023/06/21 10:36:09;;;;;;;0.20;0.10;;;27.30;99.90;;;;;;5026725;28;20405;-70
2023/06/21 10:38:50;;;;;;;0.10;0.00;;;27.50;99.90;;;;;;5011718;28;20053;-70
2023/06/21 10:41:16;;;;;;;0.00;0.00;;;27.70;99.90;;;;;;4991541;28;20088;-70
2023/06/21 10:43:43;;;;;;;0.15;0.10;;;27.70;99.90;;;;;;5030728;28;20037;-70
2023/06/21 10:46:10;;;;;;;0.00;0.00;;;27.80;99.90;;;;;;5028932;28;20057;-70
2023/06/21 10:48:36;;;;;;;0.00;0.00;;;28.00;99.90;;;;;;5012709;28;20042;-70
2023/06/21 10:51:04;;;;;;;0.00;0.00;;;27.90;99.00;;;;;;5028480;28;20048;-70
2023/06/21 10:53:32;;;;;;;0.03;0.00;;;27.70;99.60;;;;;;5012025;28;20049;-70
2023/06/21 10:56:00;;;;;;;0.00;0.00;;;27.20;99.10;;;;;;5028086;28;20060;-70
2023/06/21 10:58:26;;;;;;;0.10;0.00;;;26.80;99.80;;;;;;5027893;28;20056;-70
2023/06/21 11:00:51;;;;;;;0.10;0.00;;;26.50;99.90;;;;;;5030367;28;20406;-70
2023/06/21 11:03:24;;;;;;;0.68;0.00;;;26.40;99.90;;;;;;5012009;28;20364;-70
2023/06/21 11:06:15;;;;;;;2.25;0.45;;;26.30;99.90;;;;;;5025849;28;20117;-70
2023/06/21 11:08:41;;;;;;;0.00;0.00;;;26.30;99.90;;;;;;5025206;28;20050;-70
2023/06/21 11:11:07;;;;;;;0.00;0.00;;;26.20;99.90;;;;;;5011545;28;20060;-70
2023/06/21 11:13:40;;;;;;;0.00;0.00;;;26.20;99.90;;;;;;5011397;28;20504;-70
2023/06/21 11:16:13;;;;;;;0.05;0.00;;;26.30;99.90;;;;;;5011943;28;20056;-70
2023/06/21 11:18:39;;;;;;;0.20;0.00;;;26.30;99.90;;;;;;5025776;28;20140;-70
2023/06/21 11:21:05;;;;;;;0.00;0.00;;;26.20;99.90;;;;;;5010938;28;20960;-70
2023/06/21 11:23:46;;;;;;;0.00;0.00;;;26.10;99.90;;;;;;5009807;28;20418;-69
2023/06/21 11:26:16;;;;;;;0.00;0.00;;;26.00;99.90;;;;;;5027343;28;20279;-69
2023/06/21 11:28:47;;;;;;;0.00;0.00;;;26.10;99.90;;;;;;5029481;28;20087;-69
2023/06/21 11:31:17;;;;;;;0.00;0.00;;;26.40;99.90;;;;;;5012885;28;20045;-69
2023/06/21 11:33:52;;;;;;;0.00;0.00;;;26.90;99.90;;;;;;5025556;28;20267;-70
2023/06/21 11:36:24;;;;;;;0.20;0.10;;;27.30;99.90;;;;;;5010981;28;20052;-70
2023/06/21 11:38:50;;;;;;;0.08;0.08;;;27.60;99.90;;;;;;5028268;28;20048;-70
2023/06/21 11:41:43;;;;;;;0.00;0.00;;;27.80;99.90;;;;;;5029476;28;20172;-70
2023/06/21 11:44:19;;;;;;;0.00;0.00;;;28.50;99.90;;;;;;5010523;28;20053;-69
2023/06/21 11:46:45;;;;;;;0.10;0.10;;;28.90;99.90;;;;;;5028380;28;20046;-70
2023/06/21 11:49:12;;;;;;;0.10;0.00;;;29.40;99.90;;;;;;5028187;28;20132;-70
2023/06/21 11:51:52;;;;;;;0.00;0.00;;;29.80;99.30;;;;;;5029423;28;20517;-70
2023/06/21 11:54:35;;;;;;;0.00;0.00;;;30.20;99.90;;;;;;5025533;28;20068;-70
2023/06/21 11:57:05;;;;;;;0.00;0.00;;;30.40;91.00;;;;;;5011009;28;20049;-70
2023/06/21 11:59:35;;;;;;;0.15;0.05;;;30.30;95.50;;;;;;5026860;28;20051;-70
2023/06/21 12:02:13;;;;;;;0.15;0.10;;;30.30;88.10;;;;;;5008958;28;20073;-70
2023/06/21 12:04:40;;;;;;;0.00;0.00;;;29.70;79.70;;;;;;5023799;28;20045;-70
2023/06/21 12:07:06;;;;;;;0.25;0.10;;;29.20;87.90;;;;;;5027716;28;20279;-70
2023/06/21 12:09:32;;;;;;;0.03;0.00;;;28.80;88.80;;;;;;5025360;28;20076;-69
2023/06/21 12:11:58;;;;;;;0.00;0.00;;;28.50;84.10;;;;;;5008492;28;20065;-69
2023/06/21 12:14:23;;;;;;;0.08;0.08;;;28.30;91.20;;;;;;5008308;28;20053;-69
2023/06/21 12:16:50;;;;;;;0.00;0.00;;;28.50;91.30;;;;;;5011774;28;20045;-70
2023/06/21 12:19:15;;;;;;;0.20;0.10;;;28.50;92.10;;;;;;5026472;28;20037;-69
2023/06/21 12:21:42;;;;;;;0.17;0.03;;;28.40;90.60;;;;;;5011574;28;20496;-70
2023/06/21 12:24:08;;;;;;;0.00;0.00;;;28.70;91.50;;;;;;5008497;28;20112;-69
2023/06/21 12:26:48;;;;;;;0.00;0.00;;;28.90;88.60;;;;;;5025619;28;20117;-69
2023/06/21 12:29:14;;;;;;;0.00;0.00;;;29.30;91.10;;;;;;5026023;28;20092;-69
2023/06/21 12:31:43;;;;;;;0.00;0.00;;;29.50;93.10;;;;;;5008760;28;20073;-69
2023/06/21 12:34:15;;;;;;;0.45;0.00;;;29.80;92.80;;;;;;5006148;28;20037;-69
2023/06/21 12:36:42;;;;;;;0.00;0.00;;;29.80;92.00;;;;;;5026742;28;20141;-69
2023/06/21 12:39:09;;;;;;;0.00;0.00;;;29.50;88.10;;;;;;5007969;28;20038;-69
2023/06/21 12:41:35;;;;;;;0.00;0.00;;;29.10;83.60;;;;;;5009006;28;20049;-69
2023/06/21 12:44:03;;;;;;;0.10;0.00;;;28.90;89.70;;;;;;5022771;28;20081;-70
2023/06/21 12:46:39;;;;;;;0.00;0.00;;;29.20;90.20;;;;;;5010276;28;20096;-70
2023/06/21 12:49:05;;;;;;;0.10;0.00;;;29.60;90.60;;;;;;5007391;28;20051;-70
2023/06/21 12:51:33;;;;;;;0.00;0.00;;;29.90;90.30;;;;;;5002064;28;20053;-70